Time;durP1;ratioP1;P1;durP2;ratioP2;P2;SDS_P1;SDS_P2;PMS_P1;PMS_P2;Temp;Humidity;BMP_temperature;BMP_pressure;BME280_temperature;BME280_humidity;BME280_pressure;Samples;Min_cycle;Max_cycle;Signal;HPM_P1;HPM_P2
2022/03/13 00:01:10;;;;;;;;;;;4.80;37.20;;;;;;5032719;28;19964;-57
2022/03/13 00:03:37;;;;;;;;;;;4.70;37.70;;;;;;5033107;28;20333;-58
2022/03/13 00:06:02;;;;;;;;;;;4.60;37.90;;;;;;5033063;28;19916;-57
2022/03/13 00:08:31;;;;;;;;;;;4.60;38.40;;;;;;5033060;28;19913;-57
2022/03/13 00:10:59;;;;;;;;;;;4.30;39.40;;;;;;5033088;28;19909;-57
2022/03/13 00:13:30;;;;;;;;;;;4.20;39.70;;;;;;5032983;28;19967;-57
2022/03/13 00:15:59;;;;;;;;;;;4.20;39.80;;;;;;5033101;28;19909;-59
2022/03/13 00:18:24;;;;;;;;;;;4.10;39.40;;;;;;5032912;28;19909;-58
2022/03/13 00:20:51;;;;;;;;;;;4.20;39.40;;;;;;5032779;28;19924;-58
2022/03/13 00:23:17;;;;;;;;;;;4.10;40.30;;;;;;5036520;28;19984;-57
2022/03/13 00:25:43;;;;;;;;;;;3.90;41.10;;;;;;5036636;28;19943;-58
2022/03/13 00:28:08;;;;;;;;;;;3.90;40.00;;;;;;5036446;28;19913;-58
2022/03/13 00:30:35;;;;;;;;;;;4.00;38.70;;;;;;5036585;28;19909;-57
2022/03/13 00:33:01;;;;;;;;;;;4.20;38.00;;;;;;5036412;28;20007;-59
2022/03/13 00:35:27;;;;;;;;;;;4.30;36.80;;;;;;5036307;28;20377;-58
2022/03/13 00:37:53;;;;;;;;;;;4.30;36.90;;;;;;5036483;28;20410;-58
2022/03/13 00:40:20;;;;;;;;;;;4.20;37.50;;;;;;5036497;28;20296;-58
2022/03/13 00:42:46;;;;;;;;;;;4.20;37.10;;;;;;5036479;28;19999;-58
2022/03/13 00:45:13;;;;;;;;;;;4.40;35.00;;;;;;5036141;28;20353;-58
2022/03/13 00:47:38;;;;;;;;;;;4.50;34.80;;;;;;5036381;28;19949;-57
2022/03/13 00:50:04;;;;;;;;;;;4.50;34.80;;;;;;5036039;28;19955;-58
2022/03/13 00:52:30;;;;;;;;;;;4.40;35.80;;;;;;5036039;28;19963;-58
2022/03/13 00:54:55;;;;;;;;;;;4.20;37.90;;;;;;5035941;28;19936;-56
2022/03/13 00:57:21;;;;;;;;;;;4.10;38.30;;;;;;5036035;28;20360;-57
2022/03/13 00:59:47;;;;;;;;;;;3.90;39.80;;;;;;5036075;28;20357;-57
2022/03/13 01:02:13;;;;;;;;;;;3.80;40.70;;;;;;5036029;28;19917;-57
2022/03/13 01:04:38;;;;;;;;;;;3.70;40.60;;;;;;5035683;28;19909;-57
2022/03/13 01:07:04;;;;;;;;;;;3.70;39.30;;;;;;5036325;28;19995;-56
2022/03/13 01:09:29;;;;;;;;;;;3.70;39.80;;;;;;5036098;28;19909;-58
2022/03/13 01:11:55;;;;;;;;;;;3.50;41.30;;;;;;5036049;28;19909;-58
2022/03/13 01:14:22;;;;;;;;;;;3.60;41.60;;;;;;5035926;28;19909;-57
2022/03/13 01:16:47;;;;;;;;;;;3.60;40.70;;;;;;5035696;28;19955;-58
2022/03/13 01:19:13;;;;;;;;;;;3.50;40.70;;;;;;5035300;28;19999;-58
2022/03/13 01:21:40;;;;;;;;;;;3.60;41.60;;;;;;5035587;28;19931;-58
2022/03/13 01:24:06;;;;;;;;;;;3.60;40.50;;;;;;5035593;28;19917;-57
2022/03/13 01:26:37;;;;;;;;;;;3.90;39.50;;;;;;5035370;28;20297;-57
2022/03/13 01:29:04;;;;;;;;;;;3.70;39.70;;;;;;5035348;28;19913;-57
2022/03/13 01:31:34;;;;;;;;;;;3.70;40.10;;;;;;5035210;28;19919;-58
2022/03/13 01:34:00;;;;;;;;;;;3.60;38.90;;;;;;5034238;28;19909;-57
2022/03/13 01:36:26;;;;;;;;;;;3.70;38.40;;;;;;5035114;28;19921;-58
2022/03/13 01:38:55;;;;;;;;;;;3.70;38.80;;;;;;5035198;28;19913;-58
2022/03/13 01:41:21;;;;;;;;;;;3.60;38.50;;;;;;5035160;28;20012;-58
2022/03/13 01:43:48;;;;;;;;;;;3.60;38.60;;;;;;5034972;28;19925;-58
2022/03/13 01:46:13;;;;;;;;;;;3.60;38.20;;;;;;5034954;28;19913;-58
2022/03/13 01:48:50;;;;;;;;;;;3.80;36.90;;;;;;5034898;28;19966;-57
2022/03/13 01:51:15;;;;;;;;;;;4.10;35.80;;;;;;5034945;28;19916;-58
2022/03/13 01:53:41;;;;;;;;;;;4.00;35.90;;;;;;5034977;28;19909;-58
2022/03/13 01:56:07;;;;;;;;;;;3.90;36.70;;;;;;5035027;28;20388;-57
2022/03/13 01:58:32;;;;;;;;;;;3.70;37.50;;;;;;5034754;28;20023;-59
2022/03/13 02:00:58;;;;;;;;;;;3.70;36.80;;;;;;5034722;28;19924;-58
2022/03/13 02:03:24;;;;;;;;;;;3.70;36.80;;;;;;5034636;28;19924;-58
2022/03/13 02:05:50;;;;;;;;;;;3.70;36.80;;;;;;5033566;28;19910;-58
2022/03/13 02:08:20;;;;;;;;;;;3.70;36.30;;;;;;5035636;28;19916;-58
2022/03/13 02:10:46;;;;;;;;;;;3.80;35.80;;;;;;5034774;28;19909;-58
2022/03/13 02:13:13;;;;;;;;;;;4.00;35.50;;;;;;5034473;28;19968;-57
2022/03/13 02:15:39;;;;;;;;;;;4.10;35.10;;;;;;5034414;28;19909;-57
2022/03/13 02:18:05;;;;;;;;;;;4.10;34.90;;;;;;5034641;28;19932;-57
2022/03/13 02:20:34;;;;;;;;;;;4.00;35.40;;;;;;5034427;28;19924;-57
2022/03/13 02:23:00;;;;;;;;;;;4.00;34.90;;;;;;5034516;28;19996;-57
2022/03/13 02:25:31;;;;;;;;;;;4.10;34.90;;;;;;5034307;28;19909;-57
2022/03/13 02:27:57;;;;;;;;;;;4.00;35.70;;;;;;5034381;28;20331;-57
2022/03/13 02:30:25;;;;;;;;;;;3.80;35.70;;;;;;5034448;28;19934;-58
2022/03/13 02:32:51;;;;;;;;;;;3.90;36.40;;;;;;5034318;28;19920;-57
2022/03/13 02:35:17;;;;;;;;;;;3.80;36.40;;;;;;5034226;28;19914;-57
2022/03/13 02:37:43;;;;;;;;;;;3.70;37.10;;;;;;5033965;28;19921;-57
2022/03/13 02:40:20;;;;;;;;;;;3.50;37.70;;;;;;5034283;28;19956;-58
2022/03/13 02:42:45;;;;;;;;;;;3.40;38.80;;;;;;5033792;28;19909;-57
2022/03/13 02:45:21;;;;;;;;;;;3.30;39.00;;;;;;5034095;28;19920;-58
2022/03/13 02:47:47;;;;;;;;;;;3.40;38.40;;;;;;5034146;28;19916;-58
2022/03/13 02:50:12;;;;;;;;;;;3.30;38.80;;;;;;5034021;28;20258;-58
2022/03/13 02:52:39;;;;;;;;;;;3.40;38.60;;;;;;5033807;28;19909;-58
2022/03/13 02:55:04;;;;;;;;;;;3.40;37.80;;;;;;5033807;28;20375;-58
2022/03/13 02:57:30;;;;;;;;;;;3.40;38.10;;;;;;5033977;28;19909;-58
2022/03/13 02:59:56;;;;;;;;;;;3.40;38.00;;;;;;5033664;28;19961;-62
2022/03/13 03:02:21;;;;;;;;;;;3.60;37.20;;;;;;5033862;28;19916;-57
2022/03/13 03:04:48;;;;;;;;;;;3.80;36.60;;;;;;5033739;28;19909;-57
2022/03/13 03:07:13;;;;;;;;;;;3.70;36.40;;;;;;5033769;28;19959;-57
2022/03/13 03:09:39;;;;;;;;;;;3.90;36.20;;;;;;5033520;28;19909;-58
2022/03/13 03:12:05;;;;;;;;;;;3.90;35.50;;;;;;5033703;28;19920;-58
2022/03/13 03:14:32;;;;;;;;;;;4.00;35.80;;;;;;5033517;28;19917;-57
2022/03/13 03:16:58;;;;;;;;;;;4.00;35.80;;;;;;5033727;28;20380;-57
2022/03/13 03:19:23;;;;;;;;;;;4.00;36.40;;;;;;5033416;28;19910;-60
2022/03/13 03:21:49;;;;;;;;;;;3.80;36.80;;;;;;5033946;28;19932;-58
2022/03/13 03:24:20;;;;;;;;;;;3.80;36.90;;;;;;5033572;28;20360;-57
2022/03/13 03:26:46;;;;;;;;;;;3.90;36.30;;;;;;5033619;28;19909;-57
2022/03/13 03:29:12;;;;;;;;;;;4.00;35.50;;;;;;5033352;28;19920;-57
2022/03/13 03:31:42;;;;;;;;;;;4.10;35.10;;;;;;5033431;28;19909;-57
2022/03/13 03:34:10;;;;;;;;;;;4.20;34.70;;;;;;5033437;28;19948;-58
2022/03/13 03:36:45;;;;;;;;;;;4.20;34.70;;;;;;5033078;28;20026;-58
2022/03/13 03:39:11;;;;;;;;;;;4.20;34.70;;;;;;5033433;28;19921;-58
2022/03/13 03:41:38;;;;;;;;;;;4.20;34.80;;;;;;5033447;28;19970;-57
2022/03/13 03:44:04;;;;;;;;;;;4.20;34.90;;;;;;5033874;28;19910;-61
2022/03/13 03:46:29;;;;;;;;;;;4.20;35.00;;;;;;5033792;28;20380;-57
2022/03/13 03:48:55;;;;;;;;;;;4.00;35.40;;;;;;5033468;28;19916;-63
2022/03/13 03:51:20;;;;;;;;;;;4.10;35.00;;;;;;5033361;28;20338;-60
2022/03/13 03:53:46;;;;;;;;;;;4.00;34.90;;;;;;5033207;28;19909;-61
2022/03/13 03:56:11;;;;;;;;;;;4.00;35.40;;;;;;5033832;28;20320;-58
2022/03/13 03:58:37;;;;;;;;;;;3.70;37.50;;;;;;5037227;28;19909;-57
2022/03/13 04:01:02;;;;;;;;;;;3.50;38.50;;;;;;5037013;28;20360;-58
2022/03/13 04:03:28;;;;;;;;;;;3.20;39.90;;;;;;5037077;28;19909;-58
2022/03/13 04:05:54;;;;;;;;;;;3.10;40.30;;;;;;5036782;28;19917;-58
2022/03/13 04:08:19;;;;;;;;;;;3.00;40.50;;;;;;5036968;28;19917;-57
2022/03/13 04:10:45;;;;;;;;;;;3.10;40.40;;;;;;5036824;28;20283;-58
2022/03/13 04:13:11;;;;;;;;;;;3.40;38.20;;;;;;5036648;28;19919;-56
2022/03/13 04:15:37;;;;;;;;;;;3.50;37.90;;;;;;5037121;28;19915;-57
2022/03/13 04:18:02;;;;;;;;;;;3.60;38.10;;;;;;5036717;28;20269;-57
2022/03/13 04:20:29;;;;;;;;;;;3.60;37.30;;;;;;5036739;28;19917;-57
2022/03/13 04:22:55;;;;;;;;;;;3.50;37.80;;;;;;5036666;28;19913;-56
2022/03/13 04:25:21;;;;;;;;;;;3.50;37.60;;;;;;5036685;28;19932;-60
2022/03/13 04:27:47;;;;;;;;;;;3.50;37.60;;;;;;5036454;28;19909;-60
2022/03/13 04:30:13;;;;;;;;;;;3.40;37.70;;;;;;5036351;28;20377;-57
2022/03/13 04:32:39;;;;;;;;;;;3.70;36.60;;;;;;5036263;28;19963;-59
2022/03/13 04:35:05;;;;;;;;;;;3.70;37.40;;;;;;5036323;28;19909;-56
2022/03/13 04:37:30;;;;;;;;;;;3.60;36.90;;;;;;5036239;28;19928;-56
2022/03/13 04:39:56;;;;;;;;;;;3.60;37.50;;;;;;5036352;28;19917;-58
2022/03/13 04:42:21;;;;;;;;;;;3.40;38.20;;;;;;5036240;28;19913;-57
2022/03/13 04:44:47;;;;;;;;;;;3.50;37.80;;;;;;5036527;28;19916;-59
2022/03/13 04:47:13;;;;;;;;;;;3.50;38.00;;;;;;5036366;28;20016;-57
2022/03/13 04:49:38;;;;;;;;;;;3.50;37.80;;;;;;5036213;28;20389;-57
2022/03/13 04:52:05;;;;;;;;;;;3.50;38.10;;;;;;5036196;28;20352;-58
2022/03/13 04:54:30;;;;;;;;;;;3.50;37.80;;;;;;5036288;28;19909;-57
2022/03/13 04:56:56;;;;;;;;;;;3.50;37.80;;;;;;5036067;28;19916;-58
2022/03/13 04:59:22;;;;;;;;;;;3.60;37.10;;;;;;5037020;28;19913;-57
2022/03/13 05:01:48;;;;;;;;;;;3.60;37.50;;;;;;5038508;28;20369;-58
2022/03/13 05:04:14;;;;;;;;;;;3.70;37.40;;;;;;5035937;28;19920;-59
2022/03/13 05:06:40;;;;;;;;;;;3.50;38.30;;;;;;5035663;28;19909;-58
2022/03/13 05:09:06;;;;;;;;;;;3.70;37.70;;;;;;5035630;28;19976;-58
2022/03/13 05:11:33;;;;;;;;;;;3.80;37.70;;;;;;5035749;28;19909;-61
2022/03/13 05:13:58;;;;;;;;;;;3.70;37.80;;;;;;5036005;28;19909;-58
2022/03/13 05:16:24;;;;;;;;;;;3.50;38.30;;;;;;5035782;28;19916;-58
2022/03/13 05:18:49;;;;;;;;;;;3.30;39.30;;;;;;5035815;28;20349;-58
2022/03/13 05:21:15;;;;;;;;;;;3.30;39.60;;;;;;5035410;28;20331;-59
2022/03/13 05:23:41;;;;;;;;;;;3.20;40.40;;;;;;5034351;28;19955;-58
2022/03/13 05:26:06;;;;;;;;;;;3.20;40.30;;;;;;5035531;28;19910;-58
2022/03/13 05:28:32;;;;;;;;;;;3.10;41.00;;;;;;5035583;28;20348;-58
2022/03/13 05:30:58;;;;;;;;;;;3.20;40.80;;;;;;5035582;28;20230;-67
2022/03/13 05:33:24;;;;;;;;;;;3.30;40.60;;;;;;5035563;28;19910;-68
2022/03/13 05:35:49;;;;;;;;;;;3.20;40.50;;;;;;5035032;28;19957;-65
2022/03/13 05:38:15;;;;;;;;;;;3.20;40.80;;;;;;5035939;28;19963;-58
2022/03/13 05:40:40;;;;;;;;;;;3.30;40.50;;;;;;5035254;28;19917;-62
2022/03/13 05:43:06;;;;;;;;;;;3.40;40.10;;;;;;5035159;28;19963;-58
2022/03/13 05:45:32;;;;;;;;;;;3.40;39.80;;;;;;5035292;28;19913;-60
2022/03/13 05:47:59;;;;;;;;;;;3.60;39.20;;;;;;5035290;28;19909;-62
2022/03/13 05:50:26;;;;;;;;;;;3.90;38.20;;;;;;5035353;28;19949;-63
2022/03/13 05:52:55;;;;;;;;;;;3.90;38.20;;;;;;5035148;28;19909;-65
2022/03/13 05:55:22;;;;;;;;;;;4.10;37.50;;;;;;5035309;28;19909;-65
2022/03/13 05:57:47;;;;;;;;;;;4.20;37.70;;;;;;5033734;28;19909;-63
2022/03/13 06:00:14;;;;;;;;;;;4.20;37.60;;;;;;5034972;28;20250;-64
2022/03/13 06:02:40;;;;;;;;;;;4.10;37.70;;;;;;5034523;28;19916;-61
2022/03/13 06:05:07;;;;;;;;;;;4.20;37.30;;;;;;5034949;28;20400;-68
2022/03/13 06:07:32;;;;;;;;;;;4.20;37.40;;;;;;5034858;28;20391;-62
2022/03/13 06:10:02;;;;;;;;;;;4.30;37.50;;;;;;5034532;28;19909;-69
2022/03/13 06:12:27;;;;;;;;;;;4.20;38.20;;;;;;5034928;28;19963;-65
2022/03/13 06:14:53;;;;;;;;;;;4.10;38.50;;;;;;5035043;28;19913;-65
2022/03/13 06:17:19;;;;;;;;;;;4.00;39.00;;;;;;5034744;28;19952;-59
2022/03/13 06:19:44;;;;;;;;;;;4.00;39.20;;;;;;5033903;28;20376;-64
2022/03/13 06:22:10;;;;;;;;;;;3.90;39.00;;;;;;5034773;28;19956;-61
2022/03/13 06:24:36;;;;;;;;;;;4.00;39.50;;;;;;5034731;28;20001;-59
2022/03/13 06:27:02;;;;;;;;;;;4.10;39.60;;;;;;5034621;28;20345;-57
2022/03/13 06:29:28;;;;;;;;;;;4.00;40.00;;;;;;5034336;28;20288;-62
2022/03/13 06:31:53;;;;;;;;;;;4.00;40.30;;;;;;5034458;28;19909;-62
2022/03/13 06:34:19;;;;;;;;;;;4.00;40.90;;;;;;5034556;28;19913;-62
2022/03/13 06:36:45;;;;;;;;;;;4.00;41.40;;;;;;5034247;28;19921;-67
2022/03/13 06:39:10;;;;;;;;;;;4.10;41.40;;;;;;5034276;28;19909;-57
2022/03/13 06:41:36;;;;;;;;;;;4.10;40.80;;;;;;5034332;28;19960;-58
2022/03/13 06:44:02;;;;;;;;;;;4.10;40.80;;;;;;5034207;28;19935;-58
2022/03/13 06:46:28;;;;;;;;;;;4.10;41.60;;;;;;5034169;28;19949;-57
2022/03/13 06:48:53;;;;;;;;;;;4.20;41.30;;;;;;5034106;28;20352;-58
2022/03/13 06:51:20;;;;;;;;;;;4.30;41.40;;;;;;5034468;28;19909;-57
2022/03/13 06:53:45;;;;;;;;;;;4.50;42.00;;;;;;5033940;28;19913;-56
2022/03/13 06:56:12;;;;;;;;;;;4.80;41.30;;;;;;5033987;28;19913;-58
2022/03/13 06:58:39;;;;;;;;;;;5.20;41.20;;;;;;5033907;28;19995;-58
2022/03/13 07:01:05;;;;;;;;;;;5.50;40.50;;;;;;5033730;28;20341;-58
2022/03/13 07:03:32;;;;;;;;;;;6.00;40.20;;;;;;5034077;28;19909;-58
2022/03/13 07:05:58;;;;;;;;;;;6.40;39.50;;;;;;5033761;28;19909;-58
2022/03/13 07:08:24;;;;;;;;;;;6.80;39.00;;;;;;5032465;28;19916;-57
2022/03/13 07:10:50;;;;;;;;;;;7.20;39.00;;;;;;5033819;28;19909;-57
2022/03/13 07:13:18;;;;;;;;;;;7.50;37.80;;;;;;5033534;28;19909;-57
2022/03/13 07:15:44;;;;;;;;;;;7.80;37.30;;;;;;5033832;28;20250;-57
2022/03/13 07:18:09;;;;;;;;;;;8.10;36.70;;;;;;5034017;28;19915;-57
2022/03/13 07:20:35;;;;;;;;;;;8.40;36.30;;;;;;5033513;28;19961;-59
2022/03/13 07:23:00;;;;;;;;;;;8.60;36.00;;;;;;5033627;28;19949;-58
2022/03/13 07:25:26;;;;;;;;;;;8.80;35.90;;;;;;5033762;28;20361;-59
2022/03/13 07:27:52;;;;;;;;;;;9.10;36.70;;;;;;5033740;28;19959;-54
2022/03/13 07:30:17;;;;;;;;;;;9.40;53.50;;;;;;5033506;28;19909;-56
2022/03/13 07:32:43;;;;;;;;;;;9.70;43.60;;;;;;5036854;28;19966;-56
2022/03/13 07:35:09;;;;;;;;;;;9.90;39.70;;;;;;5037793;28;19909;-56
2022/03/13 07:37:35;;;;;;;;;;;10.20;37.00;;;;;;5037531;28;19975;-54
2022/03/13 07:40:01;;;;;;;;;;;10.50;40.00;;;;;;5037524;28;19960;-55
2022/03/13 07:42:27;;;;;;;;;;;11.00;41.10;;;;;;5037554;28;19909;-55
2022/03/13 07:44:52;;;;;;;;;;;11.20;33.20;;;;;;5037410;28;19913;-61
2022/03/13 07:47:18;;;;;;;;;;;11.30;29.30;;;;;;5037643;28;19909;-62
2022/03/13 07:49:44;;;;;;;;;;;11.00;28.30;;;;;;5037608;28;19909;-62
2022/03/13 07:52:10;;;;;;;;;;;11.10;28.20;;;;;;5039643;28;19936;-66
2022/03/13 07:54:35;;;;;;;;;;;11.00;28.00;;;;;;5041394;28;19969;-57
2022/03/13 07:57:01;;;;;;;;;;;11.10;27.80;;;;;;5036508;28;19952;-60
2022/03/13 07:59:27;;;;;;;;;;;11.20;28.00;;;;;;5036762;28;19909;-72
2022/03/13 08:01:52;;;;;;;;;;;11.20;26.90;;;;;;5037039;28;19909;-64
2022/03/13 08:04:18;;;;;;;;;;;11.20;27.20;;;;;;5036852;28;19967;-63
2022/03/13 08:06:45;;;;;;;;;;;11.10;27.20;;;;;;5036671;28;19909;-59
2022/03/13 08:09:10;;;;;;;;;;;10.80;27.80;;;;;;5036391;28;19909;-59
2022/03/13 08:11:36;;;;;;;;;;;10.50;28.10;;;;;;5036348;28;19910;-61
2022/03/13 08:14:02;;;;;;;;;;;10.70;28.60;;;;;;5036321;28;19909;-65
2022/03/13 08:16:28;;;;;;;;;;;10.90;27.20;;;;;;5036329;28;19909;-64
2022/03/13 08:18:54;;;;;;;;;;;11.10;26.60;;;;;;5036495;28;19916;-60
2022/03/13 08:21:19;;;;;;;;;;;11.20;26.60;;;;;;5036033;28;19924;-61
2022/03/13 08:23:45;;;;;;;;;;;11.20;26.00;;;;;;5036315;28;19909;-60
2022/03/13 08:26:12;;;;;;;;;;;10.90;26.00;;;;;;5036543;28;19967;-60
2022/03/13 08:28:38;;;;;;;;;;;11.00;26.30;;;;;;5036340;28;19913;-57
2022/03/13 08:31:03;;;;;;;;;;;10.40;26.10;;;;;;5036102;28;19920;-60
2022/03/13 08:33:29;;;;;;;;;;;10.40;28.30;;;;;;5036115;28;19909;-57
2022/03/13 08:35:55;;;;;;;;;;;10.30;27.50;;;;;;5035747;28;20285;-70
2022/03/13 08:38:20;;;;;;;;;;;10.40;28.00;;;;;;5036333;28;19920;-58
2022/03/13 08:40:46;;;;;;;;;;;10.60;27.40;;;;;;5037245;28;19917;-61
2022/03/13 08:43:12;;;;;;;;;;;10.90;28.20;;;;;;5035540;28;19963;-60
2022/03/13 08:45:38;;;;;;;;;;;10.70;26.30;;;;;;5036277;28;20008;-57
2022/03/13 08:48:04;;;;;;;;;;;10.50;27.40;;;;;;5035848;28;20326;-57
2022/03/13 08:50:29;;;;;;;;;;;10.50;27.10;;;;;;5035784;28;19913;-64
2022/03/13 08:52:56;;;;;;;;;;;10.60;28.00;;;;;;5035522;28;20008;-62
2022/03/13 08:55:22;;;;;;;;;;;10.70;27.50;;;;;;5035732;28;19968;-62
2022/03/13 08:57:48;;;;;;;;;;;10.40;27.70;;;;;;5035516;28;19909;-63
2022/03/13 09:00:15;;;;;;;;;;;10.60;29.20;;;;;;5035783;28;19940;-63
2022/03/13 09:02:41;;;;;;;;;;;10.70;29.40;;;;;;5035953;28;20006;-58
2022/03/13 09:05:07;;;;;;;;;;;10.40;29.10;;;;;;5036153;28;19940;-61
2022/03/13 09:07:33;;;;;;;;;;;10.30;29.20;;;;;;5035985;28;20273;-57
2022/03/13 09:09:58;;;;;;;;;;;10.10;29.80;;;;;;5035760;28;20353;-56
2022/03/13 09:12:24;;;;;;;;;;;10.20;35.00;;;;;;5035644;28;20016;-61
2022/03/13 09:14:50;;;;;;;;;;;10.90;48.30;;;;;;5035019;28;20347;-64
2022/03/13 09:17:17;;;;;;;;;;;11.20;32.40;;;;;;5035075;28;19913;-64
2022/03/13 09:19:43;;;;;;;;;;;10.80;29.90;;;;;;5032564;28;19967;-69
2022/03/13 09:22:08;;;;;;;;;;;10.90;30.30;;;;;;5035346;28;19909;-68
2022/03/13 09:24:34;;;;;;;;;;;10.70;29.80;;;;;;5034994;28;19949;-72
2022/03/13 09:27:00;;;;;;;;;;;10.50;29.60;;;;;;5029694;28;19909;-69
2022/03/13 09:29:25;;;;;;;;;;;10.60;30.80;;;;;;5035781;28;20396;-56
2022/03/13 09:31:51;;;;;;;;;;;10.90;30.60;;;;;;5035807;28;19982;-56
2022/03/13 09:34:17;;;;;;;;;;;11.10;30.60;;;;;;5035507;28;20285;-65
2022/03/13 09:36:43;;;;;;;;;;;11.30;30.30;;;;;;5034443;28;19925;-74
2022/03/13 09:39:09;;;;;;;;;;;11.10;29.30;;;;;;5034918;28;19936;-59
2022/03/13 09:41:35;;;;;;;;;;;11.00;30.30;;;;;;5034670;28;19917;-67
2022/03/13 09:44:00;;;;;;;;;;;11.00;29.40;;;;;;5034735;28;19921;-66
2022/03/13 09:46:26;;;;;;;;;;;10.40;29.50;;;;;;5034803;28;19916;-60
2022/03/13 09:48:52;;;;;;;;;;;10.40;30.30;;;;;;5031145;28;19916;-56
2022/03/13 09:51:18;;;;;;;;;;;10.30;29.70;;;;;;5029368;28;20329;-56
2022/03/13 09:53:44;;;;;;;;;;;10.00;30.60;;;;;;5032434;28;19915;-62
2022/03/13 09:56:09;;;;;;;;;;;9.70;31.20;;;;;;5033854;28;19963;-57
2022/03/13 09:58:35;;;;;;;;;;;9.70;34.00;;;;;;5034338;28;20711;-56
2022/03/13 10:01:01;;;;;;;;;;;10.10;34.30;;;;;;5034627;28;19917;-57
2022/03/13 10:03:27;;;;;;;;;;;10.40;33.40;;;;;;5034966;28;19941;-56
2022/03/13 10:05:56;;;;;;;;;;;10.80;32.20;;;;;;5034384;28;19976;-56
2022/03/13 10:08:29;;;;;;;;;;;11.00;32.20;;;;;;5034292;28;19975;-64
2022/03/13 10:10:55;;;;;;;;;;;10.50;32.20;;;;;;5032345;28;19969;-60
2022/03/13 10:13:38;;;;;;;;;;;10.10;34.50;;;;;;5033802;28;19949;-57
2022/03/13 10:16:05;;;;;;;;;;;10.30;35.30;;;;;;5033992;28;19909;-63
2022/03/13 10:18:31;;;;;;;;;;;10.30;35.90;;;;;;5034429;28;19913;-58
2022/03/13 10:20:57;;;;;;;;;;;10.20;36.40;;;;;;5034335;28;19961;-60
2022/03/13 10:23:22;;;;;;;;;;;10.30;35.50;;;;;;5034424;28;19913;-59
2022/03/13 10:25:52;;;;;;;;;;;10.60;35.50;;;;;;5032841;28;19917;-65
2022/03/13 10:28:17;;;;;;;;;;;11.00;39.00;;;;;;5027340;28;20003;-59
2022/03/13 10:30:45;;;;;;;;;;;11.00;35.90;;;;;;5034328;28;20392;-63
2022/03/13 10:33:10;;;;;;;;;;;10.90;35.90;;;;;;5034312;28;20281;-60
2022/03/13 10:35:36;;;;;;;;;;;11.00;36.00;;;;;;5034022;28;19909;-60
2022/03/13 10:38:12;;;;;;;;;;;10.80;37.00;;;;;;5030943;28;19921;-60
2022/03/13 10:40:39;;;;;;;;;;;10.90;38.10;;;;;;5033018;28;20224;-58
2022/03/13 10:43:08;;;;;;;;;;;11.10;38.00;;;;;;5033851;28;19915;-57
2022/03/13 10:45:37;;;;;;;;;;;11.30;37.40;;;;;;5029858;28;19968;-63
2022/03/13 10:48:21;;;;;;;;;;;10.80;37.90;;;;;;5026730;28;19976;-61
2022/03/13 10:50:51;;;;;;;;;;;10.60;38.60;;;;;;5033031;28;19952;-58
2022/03/13 10:53:18;;;;;;;;;;;11.00;39.10;;;;;;5005804;28;19930;-55
2022/03/13 10:55:44;;;;;;;;;;;10.90;39.60;;;;;;4992243;28;19960;-58
2022/03/13 10:58:09;;;;;;;;;;;11.20;39.80;;;;;;4994899;28;19913;-55
2022/03/13 11:00:36;;;;;;;;;;;10.70;41.30;;;;;;4994186;28;19951;-57
2022/03/13 11:03:10;;;;;;;;;;;10.30;41.30;;;;;;4994132;28;20367;-56
2022/03/13 11:05:36;;;;;;;;;;;10.20;41.30;;;;;;4994543;28;19910;-59
2022/03/13 11:08:03;;;;;;;;;;;10.20;41.60;;;;;;4994701;28;20004;-57
2022/03/13 11:10:29;;;;;;;;;;;10.50;41.20;;;;;;4991741;28;20290;-64
2022/03/13 11:12:57;;;;;;;;;;;10.40;40.20;;;;;;4993468;28;19917;-57
2022/03/13 11:15:24;;;;;;;;;;;10.70;39.40;;;;;;4993304;28;19913;-60
2022/03/13 11:17:50;;;;;;;;;;;10.40;39.10;;;;;;4993989;28;20383;-55
2022/03/13 11:20:18;;;;;;;;;;;10.60;39.20;;;;;;4993388;28;19922;-58
2022/03/13 11:22:43;;;;;;;;;;;10.80;39.00;;;;;;4991634;28;19913;-57
2022/03/13 11:25:09;;;;;;;;;;;11.00;38.70;;;;;;4993940;28;19919;-61
2022/03/13 11:27:40;;;;;;;;;;;11.00;38.70;;;;;;4993049;28;19920;-58
2022/03/13 11:30:08;;;;;;;;;;;10.70;39.50;;;;;;4992746;28;19910;-63
2022/03/13 11:32:52;;;;;;;;;;;10.50;39.90;;;;;;4992778;28;20005;-60
2022/03/13 11:35:18;;;;;;;;;;;10.60;39.90;;;;;;4993288;28;20273;-65
2022/03/13 11:37:51;;;;;;;;;;;10.90;39.90;;;;;;4993355;28;19934;-58
2022/03/13 11:40:18;;;;;;;;;;;11.30;39.60;;;;;;4992023;28;19928;-63
2022/03/13 11:42:50;;;;;;;;;;;11.60;40.80;;;;;;4993466;28;19917;-61
2022/03/13 11:45:33;;;;;;;;;;;11.70;39.50;;;;;;4993615;28;19956;-59
2022/03/13 11:48:04;;;;;;;;;;;11.70;38.60;;;;;;4992559;28;20433;-57
2022/03/13 11:50:59;;;;;;;;;;;11.40;38.90;;;;;;4991348;28;20366;-57
2022/03/13 11:53:25;;;;;;;;;;;11.60;39.60;;;;;;4989440;28;20396;-56
2022/03/13 11:55:57;;;;;;;;;;;11.80;39.60;;;;;;4993655;28;19917;-57
2022/03/13 11:58:42;;;;;;;;;;;11.70;39.90;;;;;;4993716;28;19936;-62
2022/03/13 12:01:12;;;;;;;;;;;11.80;39.60;;;;;;4992351;28;19918;-57
2022/03/13 12:03:39;;;;;;;;;;;11.90;39.10;;;;;;4993426;28;19914;-60
2022/03/13 12:06:05;;;;;;;;;;;11.40;39.90;;;;;;4993772;28;19933;-62
2022/03/13 12:08:49;;;;;;;;;;;11.50;40.80;;;;;;4993678;28;20369;-59
2022/03/13 12:11:38;;;;;;;;;;;11.10;40.50;;;;;;4993283;28;19919;-59
2022/03/13 12:14:06;;;;;;;;;;;11.10;41.00;;;;;;4993168;28;20310;-61
2022/03/13 12:16:32;;;;;;;;;;;10.60;41.80;;;;;;4993459;28;20361;-61
2022/03/13 12:18:58;;;;;;;;;;;10.20;43.30;;;;;;4996776;28;19910;-64
2022/03/13 12:21:24;;;;;;;;;;;10.40;43.80;;;;;;4996814;28;20385;-57
2022/03/13 12:23:49;;;;;;;;;;;10.50;43.30;;;;;;4997443;28;19910;-59
2022/03/13 12:26:19;;;;;;;;;;;10.70;43.20;;;;;;4999113;28;19909;-58
2022/03/13 12:28:45;;;;;;;;;;;11.00;42.30;;;;;;4997291;28;19916;-61
2022/03/13 12:31:11;;;;;;;;;;;11.40;42.50;;;;;;4996963;28;19917;-71
2022/03/13 12:33:37;;;;;;;;;;;11.20;41.80;;;;;;4996873;28;20005;-69
2022/03/13 12:36:03;;;;;;;;;;;11.10;42.20;;;;;;4996702;28;19922;-64
2022/03/13 12:38:30;;;;;;;;;;;11.00;43.30;;;;;;4986661;28;19921;-65
2022/03/13 12:40:57;;;;;;;;;;;11.10;42.80;;;;;;4976446;28;19972;-61
2022/03/13 12:43:23;;;;;;;;;;;11.40;42.20;;;;;;4976575;28;20362;-59
2022/03/13 12:45:51;;;;;;;;;;;11.60;41.60;;;;;;4978056;28;19932;-62
2022/03/13 12:48:17;;;;;;;;;;;11.30;41.10;;;;;;4977562;28;19917;-69
2022/03/13 12:50:47;;;;;;;;;;;11.40;41.90;;;;;;4977259;28;19914;-59
2022/03/13 12:53:24;;;;;;;;;;;11.70;42.20;;;;;;4977013;28;19914;-64
2022/03/13 12:55:50;;;;;;;;;;;11.90;41.10;;;;;;4986670;28;20477;-59
2022/03/13 12:58:16;;;;;;;;;;;12.20;41.50;;;;;;4993193;28;19922;-59
2022/03/13 13:00:43;;;;;;;;;;;11.70;40.10;;;;;;4989618;28;20409;-59
2022/03/13 13:03:08;;;;;;;;;;;11.80;41.40;;;;;;4994506;28;19914;-65
2022/03/13 13:05:34;;;;;;;;;;;11.70;41.60;;;;;;4995744;28;20436;-59
2022/03/13 13:07:59;;;;;;;;;;;12.00;41.30;;;;;;4993029;28;19909;-58
2022/03/13 13:10:25;;;;;;;;;;;11.40;40.80;;;;;;4997965;28;19956;-59
2022/03/13 13:12:51;;;;;;;;;;;11.50;42.10;;;;;;4997488;28;20445;-57
2022/03/13 13:15:20;;;;;;;;;;;11.60;41.50;;;;;;4995477;28;19949;-57
2022/03/13 13:17:48;;;;;;;;;;;12.00;41.40;;;;;;4995265;28;19917;-74
2022/03/13 13:20:20;;;;;;;;;;;12.10;40.70;;;;;;4995167;28;19926;-69
2022/03/13 13:22:46;;;;;;;;;;;12.00;40.40;;;;;;4993880;28;19996;-63
2022/03/13 13:25:12;;;;;;;;;;;11.60;41.50;;;;;;4995769;28;20317;-62
2022/03/13 13:27:39;;;;;;;;;;;11.50;42.00;;;;;;4988659;28;20002;-60
2022/03/13 13:30:23;;;;;;;;;;;11.40;42.10;;;;;;4974805;28;19914;-69
2022/03/13 13:32:54;;;;;;;;;;;11.50;42.40;;;;;;4978452;28;19918;-69
2022/03/13 13:35:25;;;;;;;;;;;11.40;42.30;;;;;;4989525;28;20393;-63
2022/03/13 13:37:56;;;;;;;;;;;11.60;42.00;;;;;;4990299;28;19949;-63
2022/03/13 13:40:23;;;;;;;;;;;11.70;41.00;;;;;;4990360;28;19972;-73
2022/03/13 13:42:54;;;;;;;;;;;11.70;41.40;;;;;;4990396;28;19910;-72
2022/03/13 13:45:23;;;;;;;;;;;11.80;41.50;;;;;;4978674;28;20296;-69
2022/03/13 13:47:52;;;;;;;;;;;11.70;41.60;;;;;;4975390;28;19910;-67
2022/03/13 13:50:21;;;;;;;;;;;11.50;41.50;;;;;;4975262;28;19910;-69
2022/03/13 13:53:01;;;;;;;;;;;11.50;41.70;;;;;;4975123;28;19953;-68
2022/03/13 13:55:27;;;;;;;;;;;11.60;41.80;;;;;;4975316;28;20369;-78
2022/03/13 13:58:11;;;;;;;;;;;11.10;42.30;;;;;;4975300;28;19917;-72
2022/03/13 14:00:38;;;;;;;;;;;11.30;42.90;;;;;;4975181;28;20012;-74
2022/03/13 14:03:03;;;;;;;;;;;11.50;42.80;;;;;;4975049;28;19953;-66
2022/03/13 14:05:29;;;;;;;;;;;11.00;42.60;;;;;;4975160;28;19949;-69
2022/03/13 14:07:54;;;;;;;;;;;10.80;43.50;;;;;;4975095;28;19997;-63
2022/03/13 14:10:20;;;;;;;;;;;11.00;43.60;;;;;;4975608;28;19914;-79
2022/03/13 14:12:48;;;;;;;;;;;11.20;43.40;;;;;;4974769;28;19937;-71
2022/03/13 14:15:14;;;;;;;;;;;11.30;42.80;;;;;;4974678;28;19914;-64
2022/03/13 14:17:40;;;;;;;;;;;11.40;42.30;;;;;;4975267;28;19914;-67
2022/03/13 14:20:06;;;;;;;;;;;11.60;42.30;;;;;;4975415;28;19964;-65
2022/03/13 14:22:33;;;;;;;;;;;11.40;41.80;;;;;;4975084;28;20259;-76